NGN2603 EDXW-EDHL
Flight info
| Callsign | NGN2603 |
|---|---|
| Flight time | 0h 28m |
| Altitude | 9000 |
| Route | OLDIP1B OLDIP DCT BADOS DCT HINHU DCT BOGMU BOGMU2V |
| Aircraft | A320/M-SDE3FGHIRWY/LB1 |
Departure
| Time | 2026-05-05 19:06 |
|---|---|
| Airport | Westerland Sylt Airport (EDXW) |
Arrival
| Time | 2026-05-05 19:34 |
|---|---|
| Airport | Lübeck Blankensee Airport (EDHL) |
| Time | Latitude | Longitude | Altitude | Speed | Heading |
|---|---|---|---|---|---|
| 2026-05-05 18:26 | 54.91311 | 8.33110 | 58 ft | 0 kts | 275° |
| 2026-05-05 18:56 | 54.91310 | 8.33149 | 56 ft | 4 kts | 271° |
| 2026-05-05 18:56 | 54.91311 | 8.33195 | 52 ft | 4 kts | 255° |
| 2026-05-05 18:56 | 54.91322 | 8.33231 | 51 ft | 3 kts | 211° |
| 2026-05-05 18:56 | 54.91324 | 8.33233 | 51 ft | 0 kts | 208° |
| 2026-05-05 19:00 | 54.91314 | 8.33224 | 54 ft | 3 kts | 208° |
| 2026-05-05 19:00 | 54.91297 | 8.33208 | 51 ft | 2 kts | 208° |
| 2026-05-05 19:00 | 54.91265 | 8.33184 | 57 ft | 11 kts | 194° |
| 2026-05-05 19:01 | 54.91187 | 8.33182 | 56 ft | 11 kts | 178° |
| 2026-05-05 19:01 | 54.91117 | 8.33185 | 58 ft | 10 kts | 179° |
| 2026-05-05 19:01 | 54.91031 | 8.33163 | 57 ft | 20 kts | 200° |
| 2026-05-05 19:01 | 54.90913 | 8.33142 | 53 ft | 17 kts | 154° |
| 2026-05-05 19:02 | 54.90805 | 8.33214 | 55 ft | 16 kts | 171° |
| 2026-05-05 19:02 | 54.90698 | 8.33231 | 58 ft | 15 kts | 175° |
| 2026-05-05 19:02 | 54.90598 | 8.33245 | 53 ft | 14 kts | 175° |
| 2026-05-05 19:02 | 54.90506 | 8.33267 | 54 ft | 13 kts | 163° |
| 2026-05-05 19:03 | 54.90430 | 8.33326 | 54 ft | 12 kts | 151° |
| 2026-05-05 19:03 | 54.90333 | 8.33468 | 57 ft | 20 kts | 128° |
| 2026-05-05 19:03 | 54.90270 | 8.33673 | 54 ft | 18 kts | 103° |
| 2026-05-05 19:03 | 54.90247 | 8.33887 | 55 ft | 18 kts | 99° |
| 2026-05-05 19:04 | 54.90235 | 8.34115 | 58 ft | 20 kts | 86° |
| 2026-05-05 19:04 | 54.90258 | 8.34359 | 56 ft | 21 kts | 79° |
| 2026-05-05 19:04 | 54.90286 | 8.34622 | 52 ft | 23 kts | 80° |
| 2026-05-05 19:04 | 54.90315 | 8.34904 | 52 ft | 24 kts | 79° |
| 2026-05-05 19:05 | 54.90359 | 8.35122 | 59 ft | 19 kts | 52° |
| 2026-05-05 19:05 | 54.90457 | 8.35118 | 56 ft | 16 kts | 324° |
| 2026-05-05 19:05 | 54.90600 | 8.34941 | 56 ft | 55 kts | 325° |
| 2026-05-05 19:05 | 54.91158 | 8.34262 | 61 ft | 136 kts | 325° |
| 2026-05-05 19:06 | 54.91993 | 8.33186 | 619 ft | 157 kts | 326° |
| 2026-05-05 19:06 | 54.92871 | 8.32035 | 1496 ft | 162 kts | 330° |
| 2026-05-05 19:06 | 54.93835 | 8.30857 | 1924 ft | 179 kts | 329° |
| 2026-05-05 19:06 | 54.94917 | 8.29551 | 2283 ft | 197 kts | 330° |
| 2026-05-05 19:07 | 54.96085 | 8.28130 | 2772 ft | 210 kts | 328° |
| 2026-05-05 19:07 | 54.97297 | 8.26642 | 3383 ft | 216 kts | 327° |
| 2026-05-05 19:07 | 54.98420 | 8.24856 | 3916 ft | 228 kts | 306° |
| 2026-05-05 19:07 | 54.99264 | 8.22375 | 4292 ft | 249 kts | 309° |
| 2026-05-05 19:08 | 55.00708 | 8.20612 | 4819 ft | 264 kts | 346° |
| 2026-05-05 19:08 | 55.02527 | 8.20701 | 5656 ft | 267 kts | 22° |
| 2026-05-05 19:08 | 55.03995 | 8.22608 | 6570 ft | 268 kts | 56° |
| 2026-05-05 19:08 | 55.04604 | 8.25675 | 7356 ft | 276 kts | 89° |
| 2026-05-05 19:09 | 55.04193 | 8.28958 | 8125 ft | 284 kts | 116° |
| 2026-05-05 19:09 | 55.03051 | 8.31820 | 8747 ft | 294 kts | 133° |
| 2026-05-05 19:09 | 55.01706 | 8.34529 | 8914 ft | 296 kts | 133° |
| 2026-05-05 19:09 | 55.00344 | 8.37207 | 8945 ft | 295 kts | 134° |
| 2026-05-05 19:10 | 54.98976 | 8.39868 | 8946 ft | 295 kts | 134° |
| 2026-05-05 19:10 | 54.97608 | 8.42517 | 8947 ft | 293 kts | 133° |
| 2026-05-05 19:10 | 54.96246 | 8.45158 | 8948 ft | 293 kts | 134° |
| 2026-05-05 19:10 | 54.94881 | 8.47800 | 8950 ft | 294 kts | 134° |
| 2026-05-05 19:11 | 54.93513 | 8.50444 | 8947 ft | 294 kts | 134° |
| 2026-05-05 19:11 | 54.92146 | 8.53086 | 8933 ft | 295 kts | 134° |
| 2026-05-05 19:11 | 54.90773 | 8.55737 | 8935 ft | 295 kts | 134° |
| 2026-05-05 19:11 | 54.89401 | 8.58392 | 8940 ft | 296 kts | 134° |
| 2026-05-05 19:12 | 54.88029 | 8.61046 | 8945 ft | 295 kts | 134° |
| 2026-05-05 19:12 | 54.86655 | 8.63697 | 8945 ft | 295 kts | 134° |
| 2026-05-05 19:12 | 54.85286 | 8.66338 | 8947 ft | 294 kts | 133° |
| 2026-05-05 19:12 | 54.83934 | 8.68938 | 8949 ft | 294 kts | 134° |
| 2026-05-05 19:13 | 54.82563 | 8.71570 | 8936 ft | 294 kts | 133° |
| 2026-05-05 19:13 | 54.81195 | 8.74192 | 8941 ft | 293 kts | 133° |
| 2026-05-05 19:13 | 54.79830 | 8.76804 | 8944 ft | 292 kts | 133° |
| 2026-05-05 19:13 | 54.78466 | 8.79415 | 8945 ft | 292 kts | 133° |
| 2026-05-05 19:14 | 54.77107 | 8.82017 | 8944 ft | 291 kts | 133° |
| 2026-05-05 19:14 | 54.75748 | 8.84618 | 8943 ft | 291 kts | 133° |
| 2026-05-05 19:14 | 54.74388 | 8.87215 | 8943 ft | 291 kts | 133° |
| 2026-05-05 19:14 | 54.73004 | 8.89850 | 8937 ft | 311 kts | 133° |
| 2026-05-05 19:15 | 54.71457 | 8.92781 | 8932 ft | 347 kts | 133° |
| 2026-05-05 19:15 | 54.69781 | 8.95960 | 8928 ft | 364 kts | 133° |
| 2026-05-05 19:15 | 54.68066 | 8.99225 | 8923 ft | 368 kts | 133° |
| 2026-05-05 19:15 | 54.66261 | 9.02669 | 8919 ft | 368 kts | 133° |
| 2026-05-05 19:16 | 54.64628 | 9.05775 | 8926 ft | 369 kts | 133° |
| 2026-05-05 19:16 | 54.62899 | 9.09052 | 8922 ft | 369 kts | 133° |
| 2026-05-05 19:16 | 54.61172 | 9.12318 | 8918 ft | 369 kts | 133° |
| 2026-05-05 19:16 | 54.59444 | 9.15581 | 8921 ft | 369 kts | 133° |
| 2026-05-05 19:17 | 54.57740 | 9.18791 | 8914 ft | 369 kts | 134° |
| 2026-05-05 19:17 | 54.56007 | 9.22046 | 8919 ft | 369 kts | 134° |
| 2026-05-05 19:17 | 54.54274 | 9.25298 | 8919 ft | 369 kts | 134° |
| 2026-05-05 19:17 | 54.52541 | 9.28550 | 8918 ft | 368 kts | 134° |
| 2026-05-05 19:18 | 54.50808 | 9.31801 | 8914 ft | 368 kts | 134° |
| 2026-05-05 19:18 | 54.49074 | 9.35049 | 8913 ft | 368 kts | 134° |
| 2026-05-05 19:18 | 54.47338 | 9.38290 | 8916 ft | 368 kts | 134° |
| 2026-05-05 19:18 | 54.45603 | 9.41526 | 8915 ft | 368 kts | 134° |
| 2026-05-05 19:19 | 54.43864 | 9.44764 | 8915 ft | 368 kts | 134° |
| 2026-05-05 19:19 | 54.42126 | 9.47996 | 8918 ft | 368 kts | 134° |
| 2026-05-05 19:19 | 54.40387 | 9.51229 | 8915 ft | 368 kts | 134° |
| 2026-05-05 19:19 | 54.38649 | 9.54459 | 8915 ft | 368 kts | 134° |
| 2026-05-05 19:20 | 54.36912 | 9.57683 | 8915 ft | 368 kts | 134° |
| 2026-05-05 19:20 | 54.35171 | 9.60907 | 8917 ft | 368 kts | 134° |
| 2026-05-05 19:20 | 54.33430 | 9.64123 | 8913 ft | 368 kts | 134° |
| 2026-05-05 19:20 | 54.31683 | 9.67345 | 8909 ft | 369 kts | 134° |
| 2026-05-05 19:21 | 54.29935 | 9.70562 | 8906 ft | 369 kts | 134° |
| 2026-05-05 19:21 | 54.28187 | 9.73780 | 8905 ft | 368 kts | 134° |
| 2026-05-05 19:21 | 54.26500 | 9.76888 | 8915 ft | 346 kts | 134° |
| 2026-05-05 19:21 | 54.24911 | 9.79821 | 8916 ft | 326 kts | 134° |
| 2026-05-05 19:22 | 54.23411 | 9.82585 | 8919 ft | 308 kts | 135° |
| 2026-05-05 19:22 | 54.21987 | 9.85202 | 8917 ft | 295 kts | 135° |
| 2026-05-05 19:22 | 54.20592 | 9.87753 | 8799 ft | 292 kts | 136° |
| 2026-05-05 19:22 | 54.19023 | 9.89896 | 8678 ft | 288 kts | 149° |
| 2026-05-05 19:23 | 54.17347 | 9.91757 | 8553 ft | 287 kts | 149° |
| 2026-05-05 19:23 | 54.15671 | 9.93616 | 8422 ft | 287 kts | 149° |
| 2026-05-05 19:23 | 54.14004 | 9.95465 | 8280 ft | 286 kts | 149° |
| 2026-05-05 19:23 | 54.12337 | 9.97312 | 8151 ft | 285 kts | 149° |
| 2026-05-05 19:24 | 54.10676 | 9.99151 | 8022 ft | 284 kts | 149° |
| 2026-05-05 19:24 | 54.09016 | 10.00987 | 7895 ft | 284 kts | 149° |
| 2026-05-05 19:24 | 54.07360 | 10.02809 | 7764 ft | 283 kts | 148° |
| 2026-05-05 19:24 | 54.05708 | 10.04626 | 7559 ft | 283 kts | 148° |
| 2026-05-05 19:25 | 54.04062 | 10.06436 | 7259 ft | 281 kts | 148° |
| 2026-05-05 19:25 | 54.02426 | 10.08234 | 6947 ft | 279 kts | 148° |
| 2026-05-05 19:25 | 54.00797 | 10.10025 | 6660 ft | 278 kts | 148° |
| 2026-05-05 19:25 | 53.99175 | 10.11803 | 6368 ft | 277 kts | 148° |
| 2026-05-05 19:26 | 53.98107 | 10.12972 | 6167 ft | 276 kts | 148° |
| 2026-05-05 19:26 | 53.96501 | 10.14730 | 5852 ft | 273 kts | 147° |
| 2026-05-05 19:26 | 53.94909 | 10.16474 | 5538 ft | 271 kts | 147° |
| 2026-05-05 19:26 | 53.93330 | 10.18203 | 5239 ft | 269 kts | 146° |
| 2026-05-05 19:27 | 53.91763 | 10.19915 | 4936 ft | 267 kts | 146° |
| 2026-05-05 19:27 | 53.90209 | 10.21613 | 4709 ft | 264 kts | 146° |
| 2026-05-05 19:27 | 53.88164 | 10.23845 | 4538 ft | 264 kts | 146° |
| 2026-05-05 19:27 | 53.86616 | 10.25529 | 4408 ft | 264 kts | 146° |
| 2026-05-05 19:28 | 53.85580 | 10.26651 | 4316 ft | 259 kts | 146° |
| 2026-05-05 19:28 | 53.84101 | 10.28253 | 4188 ft | 246 kts | 145° |
| 2026-05-05 19:28 | 53.82693 | 10.29775 | 4053 ft | 235 kts | 145° |
| 2026-05-05 19:28 | 53.81303 | 10.31171 | 3938 ft | 231 kts | 154° |
| 2026-05-05 19:29 | 53.79814 | 10.32075 | 3847 ft | 224 kts | 159° |
| 2026-05-05 19:29 | 53.78343 | 10.32890 | 3719 ft | 222 kts | 159° |
| 2026-05-05 19:29 | 53.76848 | 10.33838 | 3655 ft | 245 kts | 151° |
| 2026-05-05 19:29 | 53.75404 | 10.35452 | 3796 ft | 244 kts | 136° |
| 2026-05-05 19:30 | 53.74375 | 10.37532 | 3880 ft | 220 kts | 116° |
| 2026-05-05 19:30 | 53.73990 | 10.39888 | 3942 ft | 205 kts | 87° |
| 2026-05-05 19:30 | 53.74254 | 10.42307 | 3467 ft | 215 kts | 71° |
| 2026-05-05 19:30 | 53.74863 | 10.44621 | 3094 ft | 218 kts | 62° |
| 2026-05-05 19:31 | 53.75585 | 10.46878 | 2721 ft | 220 kts | 63° |
| 2026-05-05 19:31 | 53.76241 | 10.49241 | 2354 ft | 220 kts | 65° |
| 2026-05-05 19:31 | 53.76708 | 10.51624 | 2052 ft | 218 kts | 75° |
| 2026-05-05 19:31 | 53.77117 | 10.54098 | 1694 ft | 218 kts | 72° |
| 2026-05-05 19:32 | 53.77577 | 10.56522 | 1352 ft | 214 kts | 72° |
| 2026-05-05 19:32 | 53.78017 | 10.58792 | 1306 ft | 198 kts | 70° |
| 2026-05-05 19:32 | 53.78462 | 10.60957 | 1065 ft | 192 kts | 70° |
| 2026-05-05 19:32 | 53.78872 | 10.63064 | 860 ft | 182 kts | 71° |
| 2026-05-05 19:33 | 53.79238 | 10.64997 | 664 ft | 164 kts | 71° |
| 2026-05-05 19:33 | 53.79558 | 10.66773 | 422 ft | 152 kts | 71° |
| 2026-05-05 19:33 | 53.79868 | 10.68405 | 318 ft | 142 kts | 70° |
| 2026-05-05 19:33 | 53.80164 | 10.69939 | 148 ft | 132 kts | 70° |
| 2026-05-05 19:34 | 53.80425 | 10.71297 | 63 ft | 96 kts | 73° |
| 2026-05-05 19:34 | 53.80526 | 10.71855 | 55 ft | 23 kts | 73° |
| 2026-05-05 19:34 | 53.80573 | 10.71961 | 59 ft | 2 kts | 325° |
| 2026-05-05 19:35 | 53.80617 | 10.71810 | 62 ft | 7 kts | 292° |
| 2026-05-05 19:35 | 53.80636 | 10.71735 | 57 ft | 7 kts | 292° |
| 2026-05-05 19:35 | 53.80652 | 10.71657 | 56 ft | 7 kts | 287° |
| 2026-05-05 19:35 | 53.80657 | 10.71551 | 62 ft | 15 kts | 258° |
| 2026-05-05 19:36 | 53.80625 | 10.71379 | 61 ft | 15 kts | 252° |
| 2026-05-05 19:36 | 53.80596 | 10.71225 | 60 ft | 13 kts | 252° |
| 2026-05-05 19:36 | 53.80568 | 10.71079 | 56 ft | 18 kts | 252° |
| 2026-05-05 19:36 | 53.80513 | 10.70807 | 54 ft | 22 kts | 252° |
| 2026-05-05 19:37 | 53.80471 | 10.70573 | 53 ft | 21 kts | 252° |
| 2026-05-05 19:37 | 53.80434 | 10.70388 | 55 ft | 13 kts | 253° |
| 2026-05-05 19:37 | 53.80456 | 10.70318 | 55 ft | 6 kts | 326° |
| 2026-05-05 19:37 | 53.80481 | 10.70289 | 57 ft | 1 kts | 325° |
| 2026-05-05 19:40 | 53.80480 | 10.70289 | 58 ft | 0 kts | 325° |
| 2026-05-05 19:40 | 53.80480 | 10.70290 | 58 ft | 0 kts | 325° |